Time;durP1;ratioP1;P1;durP2;ratioP2;P2;SDS_P1;SDS_P2;PMS_P1;PMS_P2;Temp;Humidity;BMP_temperature;BMP_pressure;BME280_temperature;BME280_humidity;BME280_pressure;Samples;Min_cycle;Max_cycle;Signal;HPM_P1;HPM_P2
2023/02/03 00:01:22;;;;;;;5.00;1.20;;;;;14.90;102241.00;;;;5088686;28;20663;-74
2023/02/03 00:03:50;;;;;;;4.30;1.17;;;;;14.90;102230.00;;;;5072432;28;20199;-74
2023/02/03 00:06:18;;;;;;;5.05;1.55;;;;;14.90;102253.00;;;;5070243;28;20230;-74
2023/02/03 00:08:46;;;;;;;7.30;1.83;;;;;14.90;102258.00;;;;5074816;28;20202;-74
2023/02/03 00:11:13;;;;;;;4.47;1.50;;;;;14.90;102254.00;;;;5067400;28;20195;-73
2023/02/03 00:13:41;;;;;;;6.93;2.03;;;;;14.90;102257.00;;;;5079818;28;20572;-73
2023/02/03 00:16:08;;;;;;;4.05;1.20;;;;;14.90;102257.00;;;;5067890;28;20569;-74
2023/02/03 00:18:35;;;;;;;4.05;1.00;;;;;14.90;102255.00;;;;5067333;28;20199;-74
2023/02/03 00:21:03;;;;;;;3.80;1.52;;;;;14.90;102260.00;;;;5067499;28;20190;-74
2023/02/03 00:23:32;;;;;;;9.15;2.03;;;;;14.90;102258.00;;;;5072168;28;20225;-74
2023/02/03 00:26:06;;;;;;;3.53;1.17;;;;;14.90;102262.00;;;;5067660;28;20226;-74
2023/02/03 00:28:33;;;;;;;4.82;1.30;;;;;14.90;102267.00;;;;5066637;28;20199;-74
2023/02/03 00:31:00;;;;;;;5.90;1.05;;;;;14.90;102278.00;;;;5072125;28;20669;-74
2023/02/03 00:33:30;;;;;;;6.05;1.30;;;;;14.90;102267.00;;;;5067899;28;20195;-73
2023/02/03 00:35:57;;;;;;;4.60;1.30;;;;;14.90;102274.00;;;;5067650;28;20202;-74
2023/02/03 00:38:27;;;;;;;2.90;0.98;;;;;14.90;102276.00;;;;5060258;28;20675;-73
2023/02/03 00:40:56;;;;;;;7.30;1.67;;;;;14.90;102275.00;;;;5082953;28;20210;-74
2023/02/03 00:43:23;;;;;;;9.32;1.80;;;;;14.90;102281.00;;;;5085254;28;20691;-74
2023/02/03 00:45:50;;;;;;;6.38;1.52;;;;;14.90;102282.00;;;;5076351;28;20599;-74
2023/02/03 00:48:18;;;;;;;5.10;1.30;;;;;14.90;102283.00;;;;5077856;28;20199;-74
2023/02/03 00:50:47;;;;;;;4.20;1.48;;;;;14.90;102275.00;;;;5067808;28;20202;-74
2023/02/03 00:53:14;;;;;;;3.83;1.05;;;;;14.90;102283.00;;;;5081622;28;20218;-74
2023/02/03 00:55:43;;;;;;;3.75;1.85;;;;;14.90;102271.00;;;;5078384;28;20202;-74
2023/02/03 00:58:12;;;;;;;5.65;1.55;;;;;14.90;102279.00;;;;5083129;28;20202;-74
2023/02/03 01:00:39;;;;;;;8.90;2.03;;;;;14.90;102270.00;;;;5087086;28;20186;-74
2023/02/03 01:03:06;;;;;;;4.10;1.25;;;;;14.90;102264.00;;;;5083056;28;20199;-74
2023/02/03 01:05:34;;;;;;;5.93;1.75;;;;;14.90;102257.00;;;;5075522;28;20219;-74
2023/02/03 01:08:02;;;;;;;8.32;1.88;;;;;14.90;102255.00;;;;5079206;28;20207;-75
2023/02/03 01:10:30;;;;;;;11.25;1.33;;;;;14.90;102256.00;;;;5091750;28;20209;-74
2023/02/03 01:12:57;;;;;;;6.85;1.75;;;;;14.90;102258.00;;;;5071832;28;20202;-75
2023/02/03 01:15:25;;;;;;;7.25;1.27;;;;;14.90;102260.00;;;;5072093;28;20199;-75
2023/02/03 01:17:53;;;;;;;4.15;1.38;;;;;14.90;102251.00;;;;5088749;28;20232;-74
2023/02/03 01:20:21;;;;;;;3.95;1.20;;;;;14.90;102258.00;;;;5082432;28;20551;-75
2023/02/03 01:22:48;;;;;;;5.88;1.55;;;;;14.90;102265.00;;;;5083195;28;20644;-74
2023/02/03 01:25:15;;;;;;;4.70;1.42;;;;;14.90;102250.00;;;;5081546;28;20233;-75
2023/02/03 01:27:43;;;;;;;2.83;1.38;;;;;14.90;102251.00;;;;5080493;28;20202;-74
2023/02/03 01:30:11;;;;;;;4.97;1.67;;;;;14.90;102252.00;;;;5082617;28;20199;-74
2023/02/03 01:32:40;;;;;;;4.70;1.40;;;;;14.90;102246.00;;;;5088444;28;20301;-74
2023/02/03 01:35:08;;;;;;;4.88;1.25;;;;;14.90;102244.00;;;;5089096;28;20187;-74
2023/02/03 01:37:35;;;;;;;4.90;1.65;;;;;14.90;102228.00;;;;5085965;28;20205;-75
2023/02/03 01:40:03;;;;;;;6.10;1.35;;;;;14.90;102220.00;;;;5070166;28;20195;-75
2023/02/03 01:42:33;;;;;;;5.57;1.60;;;;;14.90;102224.00;;;;5069799;28;20224;-74
2023/02/03 01:45:00;;;;;;;4.72;1.35;;;;;14.90;102198.00;;;;5082256;28;20221;-74
2023/02/03 01:47:32;;;;;;;4.57;1.77;;;;;14.90;102205.00;;;;5089032;28;20739;-74
2023/02/03 01:50:08;;;;;;;5.40;1.15;;;;;14.80;102206.00;;;;5074452;28;20203;-74
2023/02/03 01:52:38;;;;;;;3.97;1.08;;;;;14.90;102200.00;;;;5079986;28;20205;-74
2023/02/03 01:55:09;;;;;;;3.42;1.10;;;;;14.90;102213.00;;;;5072823;28;20207;-74
2023/02/03 01:57:41;;;;;;;5.63;1.50;;;;;14.90;102218.00;;;;5069795;28;20289;-74
2023/02/03 02:00:10;;;;;;;3.63;1.08;;;;;14.90;102225.00;;;;5080025;28;20568;-74
2023/02/03 02:02:37;;;;;;;4.63;1.40;;;;;14.90;102227.00;;;;5080444;28;20186;-74
2023/02/03 02:05:11;;;;;;;5.03;1.58;;;;;14.90;102229.00;;;;5081368;28;20195;-74
2023/02/03 02:07:40;;;;;;;3.63;1.17;;;;;14.90;102203.00;;;;5070684;28;20606;-74
2023/02/03 02:10:08;;;;;;;2.88;1.02;;;;;15.00;102197.00;;;;5079832;28;20195;-74
2023/02/03 02:12:36;;;;;;;3.58;1.35;;;;;14.90;102201.00;;;;5072814;28;20206;-74
2023/02/03 02:15:04;;;;;;;5.30;1.55;;;;;14.90;102204.00;;;;5079198;28;20194;-74
2023/02/03 02:17:58;;;;;;;4.40;1.08;;;;;14.80;102188.00;;;;5089370;28;20202;-74
2023/02/03 02:20:44;;;;;;;7.95;1.23;;;;;14.90;102191.00;;;;5064008;28;20199;-74
2023/02/03 02:23:41;;;;;;;4.72;1.20;;;;;14.80;102194.00;;;;5069903;28;20206;-74
2023/02/03 02:26:37;;;;;;;4.38;1.00;;;;;14.80;102199.00;;;;5073664;28;20226;-74
2023/02/03 02:29:37;;;;;;;4.43;0.80;;;;;14.80;102197.00;;;;5070755;28;20187;-74
2023/02/03 02:32:18;;;;;;;6.05;1.67;;;;;14.80;102223.00;;;;5087872;28;20202;-74
2023/02/03 02:34:59;;;;;;;5.35;1.08;;;;;14.80;102215.00;;;;5089768;28;20190;-74
2023/02/03 02:37:37;;;;;;;8.30;1.60;;;;;14.90;102214.00;;;;5070059;28;20664;-74
2023/02/03 02:40:13;;;;;;;3.33;0.90;;;;;14.90;102208.00;;;;5069769;28;20565;-74
2023/02/03 02:42:50;;;;;;;3.88;0.82;;;;;14.90;102214.00;;;;5080815;28;20194;-75
2023/02/03 02:45:25;;;;;;;4.35;1.13;;;;;14.90;102202.00;;;;5080384;28;20201;-74
2023/02/03 02:47:57;;;;;;;5.07;0.98;;;;;14.90;102196.00;;;;5084374;28;20202;-75
2023/02/03 02:50:30;;;;;;;1.77;0.73;;;;;14.90;102190.00;;;;5090161;28;20219;-74
2023/02/03 02:52:59;;;;;;;2.38;0.80;;;;;14.90;102189.00;;;;5083488;28;20382;-75
2023/02/03 02:55:31;;;;;;;2.33;0.80;;;;;14.90;102185.00;;;;5079933;28;20202;-74
2023/02/03 02:58:04;;;;;;;3.85;1.23;;;;;14.90;102181.00;;;;5073415;28;20218;-74
2023/02/03 03:00:32;;;;;;;4.82;0.93;;;;;14.90;102182.00;;;;5080321;28;20206;-74
2023/02/03 03:03:12;;;;;;;2.30;0.60;;;;;14.90;102180.00;;;;5087630;28;20194;-74
2023/02/03 03:05:41;;;;;;;4.72;1.25;;;;;14.90;102176.00;;;;5075557;28;20190;-74
2023/02/03 03:08:12;;;;;;;5.03;1.10;;;;;15.00;102171.00;;;;5082960;28;20198;-75
2023/02/03 03:10:43;;;;;;;4.25;0.73;;;;;15.00;102171.00;;;;5089276;28;20190;-74
2023/02/03 03:13:14;;;;;;;6.30;1.00;;;;;14.90;102166.00;;;;5073047;28;21085;-75
2023/02/03 03:15:43;;;;;;;4.72;1.52;;;;;15.00;102153.00;;;;5073965;28;20214;-74
2023/02/03 03:18:15;;;;;;;3.28;0.85;;;;;14.90;102174.00;;;;5088001;28;20198;-74
2023/02/03 03:20:46;;;;;;;2.83;0.70;;;;;15.00;102165.00;;;;5089280;28;20225;-75
2023/02/03 03:23:20;;;;;;;2.85;0.90;;;;;15.00;102175.00;;;;5075345;28;20202;-74
2023/02/03 03:25:53;;;;;;;3.45;0.80;;;;;15.00;102174.00;;;;5070759;28;20708;-75
2023/02/03 03:28:26;;;;;;;2.33;0.90;;;;;15.00;102194.00;;;;5076554;28;20214;-74
2023/02/03 03:30:54;;;;;;;2.03;0.80;;;;;15.00;102181.00;;;;5074460;28;20289;-74
2023/02/03 03:33:23;;;;;;;3.67;1.15;;;;;15.00;102180.00;;;;5074801;28;20197;-74
2023/02/03 03:35:56;;;;;;;5.90;1.17;;;;;15.00;102179.00;;;;5072684;28;20191;-74
2023/02/03 03:38:31;;;;;;;6.18;0.82;;;;;15.00;102184.00;;;;5079428;28;20205;-74
2023/02/03 03:41:03;;;;;;;5.47;1.02;;;;;15.00;102179.00;;;;5084341;28;20196;-74
2023/02/03 03:43:34;;;;;;;4.78;1.38;;;;;15.00;102191.00;;;;5085023;28;20195;-74
2023/02/03 03:46:06;;;;;;;4.40;0.93;;;;;15.00;102193.00;;;;5077681;28;20599;-74
2023/02/03 03:48:39;;;;;;;1.25;0.70;;;;;15.00;102196.00;;;;5082453;28;20684;-74
2023/02/03 03:51:11;;;;;;;5.13;0.80;;;;;15.00;102197.00;;;;5086532;28;20205;-74
2023/02/03 03:53:41;;;;;;;3.20;1.08;;;;;15.00;102191.00;;;;5080713;28;20210;-74
2023/02/03 03:56:13;;;;;;;2.80;0.90;;;;;15.00;102204.00;;;;5067108;28;20590;-74
2023/02/03 03:58:45;;;;;;;2.45;0.90;;;;;15.00;102201.00;;;;5067271;28;20273;-74
2023/02/03 04:01:15;;;;;;;4.97;0.95;;;;;15.00;102207.00;;;;5084614;28;20277;-74
2023/02/03 04:03:48;;;;;;;6.95;1.42;;;;;15.00;102204.00;;;;5076420;28;20202;-74
2023/02/03 04:06:15;;;;;;;4.43;1.02;;;;;15.10;102209.00;;;;5077617;28;20696;-74
2023/02/03 04:08:42;;;;;;;3.92;1.00;;;;;15.10;102193.00;;;;5070258;28;20553;-74
2023/02/03 04:11:10;;;;;;;1.67;0.82;;;;;15.10;102202.00;;;;5071680;28;20195;-74
2023/02/03 04:13:37;;;;;;;5.57;0.82;;;;;15.10;102210.00;;;;5085352;28;20198;-74
2023/02/03 04:16:04;;;;;;;2.85;0.65;;;;;15.10;102210.00;;;;5083305;28;20590;-74
2023/02/03 04:18:32;;;;;;;5.65;1.02;;;;;15.10;102221.00;;;;5076710;28;20680;-74
2023/02/03 04:21:00;;;;;;;1.90;0.73;;;;;15.10;102215.00;;;;5068531;28;20280;-73
2023/02/03 04:23:27;;;;;;;1.95;1.00;;;;;15.10;102219.00;;;;5067978;28;20202;-73
2023/02/03 04:25:55;;;;;;;2.78;0.88;;;;;15.10;102213.00;;;;5075044;28;20544;-74
2023/02/03 04:28:22;;;;;;;3.72;0.90;;;;;15.10;102207.00;;;;5087112;28;20194;-74
2023/02/03 04:30:49;;;;;;;2.67;1.05;;;;;15.20;102207.00;;;;5084166;28;20500;-73
2023/02/03 04:33:16;;;;;;;5.20;0.93;;;;;15.10;102199.00;;;;5081858;28;20668;-73
2023/02/03 04:35:44;;;;;;;5.07;0.80;;;;;15.20;102210.00;;;;5079031;28;20194;-73
2023/02/03 04:38:12;;;;;;;3.63;0.90;;;;;15.20;102209.00;;;;5076545;28;20195;-75
2023/02/03 04:40:40;;;;;;;2.92;0.50;;;;;15.20;102202.00;;;;5080631;28;20195;-74
2023/02/03 04:43:08;;;;;;;5.03;0.77;;;;;15.20;102196.00;;;;5089005;28;20198;-74
2023/02/03 04:45:35;;;;;;;3.38;0.98;;;;;15.20;102197.00;;;;5090061;28;20198;-74
2023/02/03 04:48:03;;;;;;;1.95;0.55;;;;;15.20;102196.00;;;;5087237;28;20578;-75
2023/02/03 04:50:30;;;;;;;3.85;0.70;;;;;15.20;102207.00;;;;5079390;28;20194;-74
2023/02/03 04:52:59;;;;;;;3.42;0.90;;;;;15.20;102197.00;;;;5086551;28;20203;-74
2023/02/03 04:55:28;;;;;;;3.97;1.02;;;;;15.20;102207.00;;;;5076629;28;20198;-74
2023/02/03 04:57:56;;;;;;;2.83;0.85;;;;;15.20;102203.00;;;;5090611;28;20561;-74
2023/02/03 05:00:23;;;;;;;4.35;0.88;;;;;15.20;102189.00;;;;5080413;28;20198;-75
2023/02/03 05:02:51;;;;;;;5.50;0.80;;;;;15.20;102200.00;;;;5091222;28;20209;-74
2023/02/03 05:05:18;;;;;;;4.53;0.63;;;;;15.20;102197.00;;;;5088256;28;20202;-74
2023/02/03 05:07:47;;;;;;;3.72;0.65;;;;;15.20;102193.00;;;;5083328;28;20217;-74
2023/02/03 05:10:14;;;;;;;1.88;0.80;;;;;15.20;102205.00;;;;5086746;28;20198;-74
2023/02/03 05:12:44;;;;;;;5.32;1.20;;;;;15.20;102195.00;;;;5078097;28;20190;-75
2023/02/03 05:15:11;;;;;;;3.72;0.60;;;;;15.20;102194.00;;;;5073289;28;20187;-74
2023/02/03 05:17:39;;;;;;;6.15;1.23;;;;;15.20;102183.00;;;;5089310;28;20617;-75
2023/02/03 05:20:07;;;;;;;3.95;1.00;;;;;15.20;102179.00;;;;5087778;28;20482;-75
2023/02/03 05:22:35;;;;;;;1.70;0.50;;;;;15.20;102194.00;;;;5080407;28;20202;-75
2023/02/03 05:25:02;;;;;;;3.60;0.75;;;;;15.20;102205.00;;;;5085333;28;20323;-74
2023/02/03 05:27:30;;;;;;;6.10;0.93;;;;;15.20;102207.00;;;;5089761;28;20226;-74
2023/02/03 05:30:01;;;;;;;2.22;0.60;;;;;15.20;102217.00;;;;5082715;28;20672;-74
2023/02/03 05:32:28;;;;;;;3.10;0.60;;;;;15.30;102215.00;;;;5079251;28;20211;-74
2023/02/03 05:34:56;;;;;;;3.80;1.02;;;;;15.30;102216.00;;;;5068875;28;20653;-74
2023/02/03 05:37:23;;;;;;;1.98;0.73;;;;;15.30;102214.00;;;;5079573;28;20199;-75
2023/02/03 05:39:50;;;;;;;3.60;1.17;;;;;15.30;102207.00;;;;5070242;28;20187;-75
2023/02/03 05:42:16;;;;;;;2.83;0.68;;;;;15.30;102189.00;;;;5083440;28;20195;-76
2023/02/03 05:44:44;;;;;;;2.88;0.80;;;;;15.30;102191.00;;;;5083035;28;20199;-75
2023/02/03 05:47:12;;;;;;;3.20;0.93;;;;;15.30;102197.00;;;;5073080;28;20237;-75
2023/02/03 05:49:39;;;;;;;5.55;0.95;;;;;15.30;102201.00;;;;5083558;28;20202;-75
2023/02/03 05:52:08;;;;;;;4.18;0.80;;;;;15.30;102207.00;;;;5079076;28;20671;-76
2023/02/03 05:54:35;;;;;;;4.82;1.42;;;;;15.30;102208.00;;;;5069645;28;20776;-75
2023/02/03 05:57:02;;;;;;;2.22;1.10;;;;;15.30;102209.00;;;;5074359;28;20206;-77
2023/02/03 05:59:29;;;;;;;5.53;0.90;;;;;15.30;102213.00;;;;5080007;28;20182;-76
2023/02/03 06:01:57;;;;;;;1.52;0.55;;;;;15.30;102217.00;;;;5087111;28;20674;-78
2023/02/03 06:04:25;;;;;;;4.38;0.57;;;;;15.30;102208.00;;;;5082152;28;20210;-77
2023/02/03 06:06:53;;;;;;;3.83;0.93;;;;;15.30;102198.00;;;;5083865;28;20222;-76
2023/02/03 06:09:20;;;;;;;3.75;1.17;;;;;15.30;102198.00;;;;5086646;28;20699;-77
2023/02/03 06:11:47;;;;;;;6.38;1.42;;;;;15.30;102199.00;;;;5088434;28;20588;-77
2023/02/03 06:14:14;;;;;;;1.90;0.90;;;;;15.30;102195.00;;;;5071351;28;20206;-77
2023/02/03 06:16:41;;;;;;;2.53;0.57;;;;;15.30;102200.00;;;;5081914;28;20194;-77
2023/02/03 06:19:09;;;;;;;5.07;0.82;;;;;15.30;102197.00;;;;5087720;28;20202;-76
2023/02/03 06:21:37;;;;;;;3.33;0.88;;;;;15.20;102190.00;;;;5077793;28;20199;-77
2023/02/03 06:24:05;;;;;;;3.22;1.15;;;;;15.30;102200.00;;;;5067957;28;20576;-77
2023/02/03 06:26:33;;;;;;;4.72;1.35;;;;;15.20;102191.00;;;;5081711;28;20217;-76
2023/02/03 06:29:00;;;;;;;5.32;0.73;;;;;15.20;102185.00;;;;5084457;28;20194;-76
2023/02/03 06:31:27;;;;;;;4.45;0.98;;;;;15.20;102190.00;;;;5076631;28;20210;-76
2023/02/03 06:33:56;;;;;;;2.92;0.60;;;;;15.20;102191.00;;;;5079660;28;20199;-75
2023/02/03 06:36:23;;;;;;;4.80;1.00;;;;;15.20;102200.00;;;;5086342;28;20657;-76
2023/02/03 06:38:52;;;;;;;4.57;0.95;;;;;15.20;102210.00;;;;5071814;28;20638;-76
2023/02/03 06:41:19;;;;;;;2.15;0.60;;;;;15.20;102207.00;;;;5068412;28;20677;-76
2023/02/03 06:43:46;;;;;;;7.40;0.90;;;;;15.30;102210.00;;;;5086086;28;20599;-75
2023/02/03 06:46:13;;;;;;;4.68;1.08;;;;;15.30;102207.00;;;;5083085;28;20233;-75
2023/02/03 06:48:41;;;;;;;4.32;0.77;;;;;15.30;102212.00;;;;5087661;28;20226;-76
2023/02/03 06:51:08;;;;;;;2.70;0.80;;;;;15.30;102213.00;;;;5088834;28;20213;-76
2023/02/03 06:53:35;;;;;;;3.17;0.82;;;;;15.30;102209.00;;;;5080484;28;20218;-75
2023/02/03 06:56:04;;;;;;;4.57;0.93;;;;;15.30;102230.00;;;;5074315;28;20194;-76
2023/02/03 06:58:31;;;;;;;4.25;0.80;;;;;15.20;102231.00;;;;5073286;28;20562;-76
2023/02/03 07:00:59;;;;;;;5.80;1.40;;;;;15.20;102224.00;;;;5079844;28;20202;-75
2023/02/03 07:03:26;;;;;;;3.88;0.90;;;;;15.20;102227.00;;;;5075198;28;20444;-75
2023/02/03 07:05:53;;;;;;;3.03;1.10;;;;;15.30;102246.00;;;;5088986;28;20201;-75
2023/02/03 07:08:21;;;;;;;2.88;0.75;;;;;15.30;102248.00;;;;5079496;28;20226;-75
2023/02/03 07:10:48;;;;;;;3.03;0.63;;;;;15.30;102242.00;;;;5075376;28;20221;-76
2023/02/03 07:13:16;;;;;;;5.13;0.80;;;;;15.30;102246.00;;;;5067996;28;20203;-75
2023/02/03 07:15:44;;;;;;;2.70;0.80;;;;;15.30;102252.00;;;;5068353;28;20202;-75
2023/02/03 07:18:11;;;;;;;5.82;1.05;;;;;15.30;102260.00;;;;5071452;28;20191;-75
2023/02/03 07:20:38;;;;;;;5.47;0.98;;;;;15.30;102260.00;;;;5068208;28;20225;-75
2023/02/03 07:23:05;;;;;;;5.07;0.93;;;;;15.30;102257.00;;;;5068578;28;20199;-75
2023/02/03 07:25:33;;;;;;;5.45;0.50;;;;;15.30;102260.00;;;;5069026;28;20202;-75
2023/02/03 07:28:00;;;;;;;3.65;0.77;;;;;15.30;102261.00;;;;5067722;28;20708;-75
2023/02/03 07:30:28;;;;;;;4.25;0.80;;;;;15.30;102250.00;;;;5077889;28;20198;-76
2023/02/03 07:32:56;;;;;;;4.32;0.93;;;;;15.30;102253.00;;;;5087930;28;20202;-75
2023/02/03 07:35:24;;;;;;;2.80;0.88;;;;;15.40;102265.00;;;;5088074;28;20291;-75
2023/02/03 07:37:51;;;;;;;5.13;1.73;;;;;15.30;102261.00;;;;5075866;28;20202;-75
2023/02/03 07:40:19;;;;;;;5.88;0.90;;;;;15.40;102270.00;;;;5073637;28;20202;-75
2023/02/03 07:42:48;;;;;;;2.20;0.93;;;;;15.30;102261.00;;;;5087675;28;20190;-75
2023/02/03 07:45:17;;;;;;;4.10;0.88;;;;;15.40;102265.00;;;;5088326;28;20640;-75
2023/02/03 07:47:46;;;;;;;3.83;1.00;;;;;15.30;102262.00;;;;5087796;28;20588;-75
2023/02/03 07:50:13;;;;;;;3.30;0.80;;;;;15.40;102267.00;;;;5085903;28;20734;-75
2023/02/03 07:52:40;;;;;;;5.55;1.02;;;;;15.40;102271.00;;;;5086520;28;20208;-75
2023/02/03 07:55:08;;;;;;;8.70;1.15;;;;;15.40;102271.00;;;;5071431;28;20211;-75
2023/02/03 07:57:36;;;;;;;3.58;1.02;;;;;15.40;102266.00;;;;5068230;28;20543;-75
2023/02/03 08:00:06;;;;;;;2.33;0.57;;;;;15.40;102273.00;;;;5067777;28;20195;-75
2023/02/03 08:02:33;;;;;;;3.67;1.48;;;;;15.40;102282.00;;;;5075255;28;20274;-75
2023/02/03 08:05:02;;;;;;;2.00;0.80;;;;;15.40;102270.00;;;;5082081;28;20565;-75
2023/02/03 08:07:29;;;;;;;3.70;0.90;;;;;15.40;102279.00;;;;5088145;28;20225;-75
2023/02/03 08:09:56;;;;;;;5.97;1.00;;;;;15.40;102271.00;;;;5080703;28;20203;-75
2023/02/03 08:12:24;;;;;;;3.00;0.80;;;;;15.40;102276.00;;;;5085917;28;20205;-75
2023/02/03 08:14:51;;;;;;;5.20;0.65;;;;;15.40;102290.00;;;;5085053;28;20202;-75
2023/02/03 08:17:18;;;;;;;3.95;0.90;;;;;15.50;102280.00;;;;5087773;28;20209;-75
2023/02/03 08:19:45;;;;;;;4.38;0.90;;;;;15.50;102289.00;;;;5087839;28;20205;-75
2023/02/03 08:22:15;;;;;;;6.47;0.95;;;;;15.50;102300.00;;;;5088074;28;20201;-75
2023/02/03 08:24:44;;;;;;;6.07;1.15;;;;;15.50;102294.00;;;;5074581;28;20248;-75
2023/02/03 08:27:12;;;;;;;4.47;0.90;;;;;15.50;102324.00;;;;5087463;28;20564;-75
2023/02/03 08:29:39;;;;;;;1.88;0.93;;;;;15.50;102295.00;;;;5073848;28;20206;-75
2023/02/03 08:32:10;;;;;;;2.70;0.93;;;;;15.50;102298.00;;;;5072583;28;20194;-75
2023/02/03 08:34:37;;;;;;;3.97;1.10;;;;;15.50;102313.00;;;;5086677;28;20661;-75
2023/02/03 08:37:05;;;;;;;3.85;0.88;;;;;15.50;102308.00;;;;5081167;28;20198;-75
2023/02/03 08:39:34;;;;;;;5.38;0.98;;;;;15.50;102315.00;;;;5072806;28;20206;-76
2023/02/03 08:42:02;;;;;;;3.75;0.90;;;;;15.50;102312.00;;;;5088175;28;20214;-75
2023/02/03 08:44:30;;;;;;;7.00;1.00;;;;;15.50;102317.00;;;;5088000;28;20209;-75
2023/02/03 08:46:58;;;;;;;3.45;0.95;;;;;15.60;102300.00;;;;5075151;28;20226;-75
2023/02/03 08:49:27;;;;;;;3.25;0.80;;;;;15.60;102308.00;;;;5084656;28;20232;-75
2023/02/03 08:51:55;;;;;;;4.22;1.30;;;;;15.60;102304.00;;;;5067033;28;20195;-75
2023/02/03 08:54:23;;;;;;;3.03;0.90;;;;;15.60;102319.00;;;;5068146;28;20222;-75
2023/02/03 08:56:52;;;;;;;5.80;1.20;;;;;15.60;102317.00;;;;5067382;28;20588;-76
2023/02/03 08:59:19;;;;;;;4.28;0.90;;;;;15.70;102310.00;;;;5071478;28;20207;-75
2023/02/03 09:01:47;;;;;;;4.60;1.00;;;;;15.70;102324.00;;;;5088589;28;20195;-76
2023/02/03 09:04:18;;;;;;;3.08;0.88;;;;;15.70;102333.00;;;;5085414;28;20202;-76
2023/02/03 09:06:46;;;;;;;5.00;1.02;;;;;15.70;102332.00;;;;5087430;28;20194;-76
2023/02/03 09:09:14;;;;;;;4.47;1.00;;;;;15.80;102333.00;;;;5077408;28;20716;-75
2023/02/03 09:11:41;;;;;;;3.40;0.90;;;;;15.80;102339.00;;;;5077244;28;20207;-75
2023/02/03 09:14:10;;;;;;;3.03;0.85;;;;;15.80;102331.00;;;;5081015;28;20198;-76
2023/02/03 09:16:38;;;;;;;4.72;1.30;;;;;15.80;102336.00;;;;5087387;28;20233;-75
2023/02/03 09:19:05;;;;;;;3.55;0.80;;;;;15.80;102349.00;;;;5083021;28;20194;-75
2023/02/03 09:21:32;;;;;;;3.72;0.93;;;;;15.90;102349.00;;;;5079155;28;20210;-75
2023/02/03 09:24:01;;;;;;;6.82;1.38;;;;;15.90;102343.00;;;;5076722;28;20205;-75
2023/02/03 09:26:28;;;;;;;3.30;0.80;;;;;15.90;102355.00;;;;5084818;28;20256;-75
2023/02/03 09:28:56;;;;;;;1.83;0.70;;;;;15.90;102355.00;;;;5090768;28;20217;-74
2023/02/03 09:31:25;;;;;;;7.28;1.40;;;;;15.90;102354.00;;;;5074207;28;20676;-75
2023/02/03 09:33:52;;;;;;;5.30;1.02;;;;;15.90;102333.00;;;;5077427;28;20206;-75
2023/02/03 09:36:19;;;;;;;3.22;0.73;;;;;16.00;102354.00;;;;5089962;28;20190;-74
2023/02/03 09:38:47;;;;;;;3.30;0.93;;;;;16.00;102356.00;;;;5082470;28;20194;-75
2023/02/03 09:41:28;;;;;;;3.67;1.35;;;;;16.00;102352.00;;;;5085149;28;20473;-74
2023/02/03 09:44:01;;;;;;;8.68;1.48;;;;;16.10;102361.00;;;;5081605;28;20452;-74
2023/02/03 09:46:35;;;;;;;5.20;1.27;;;;;16.20;102342.00;;;;5089096;28;20233;-74
2023/02/03 09:49:11;;;;;;;5.50;1.30;;;;;16.20;102356.00;;;;5088678;28;20700;-74
2023/02/03 09:51:45;;;;;;;6.47;0.82;;;;;16.20;102357.00;;;;5087340;28;20243;-74
2023/02/03 09:54:20;;;;;;;5.03;0.93;;;;;16.20;102367.00;;;;5069577;28;20219;-74
2023/02/03 09:56:51;;;;;;;4.93;0.75;;;;;16.20;102362.00;;;;5074392;28;20197;-74
2023/02/03 09:59:18;;;;;;;3.20;0.57;;;;;16.20;102382.00;;;;5089987;28;20259;-75
2023/02/03 10:01:56;;;;;;;3.72;0.90;;;;;16.10;102377.00;;;;5087587;28;20824;-74
2023/02/03 10:04:32;;;;;;;3.22;0.90;;;;;16.10;102385.00;;;;5074169;28;20206;-75
2023/02/03 10:07:07;;;;;;;2.72;0.82;;;;;16.10;102384.00;;;;5079902;28;20203;-75
2023/02/03 10:09:52;;;;;;;4.65;0.90;;;;;16.10;102376.00;;;;5073380;28;20247;-75
2023/02/03 10:12:41;;;;;;;6.53;1.02;;;;;16.10;102371.00;;;;5076045;28;20201;-73
2023/02/03 10:15:27;;;;;;;4.20;0.75;;;;;16.10;102384.00;;;;5084351;28;20199;-74
2023/02/03 10:18:01;;;;;;;3.88;1.08;;;;;16.20;102392.00;;;;5072065;28;20195;-74
2023/02/03 10:20:37;;;;;;;3.65;0.90;;;;;16.10;102383.00;;;;5080307;28;20202;-74
2023/02/03 10:23:11;;;;;;;2.28;0.70;;;;;16.20;102393.00;;;;5074368;28;20198;-74
2023/02/03 10:25:42;;;;;;;5.13;0.90;;;;;16.20;102399.00;;;;5077747;28;20695;-75
2023/02/03 10:28:15;;;;;;;4.45;1.35;;;;;16.10;102389.00;;;;5071448;28;20229;-75
2023/02/03 10:30:48;;;;;;;4.93;1.20;;;;;16.20;102393.00;;;;5074252;28;20190;-75
2023/02/03 10:33:19;;;;;;;5.15;0.90;;;;;16.10;102403.00;;;;5077257;28;22464;-75
2023/02/03 10:35:52;;;;;;;4.20;0.90;;;;;16.10;102395.00;;;;5074620;28;20268;-75
2023/02/03 10:38:33;;;;;;;3.85;0.98;;;;;16.10;102391.00;;;;5082334;28;20209;-76
2023/02/03 10:41:00;;;;;;;3.70;0.90;;;;;16.10;102399.00;;;;5088096;28;20209;-75
2023/02/03 10:43:47;;;;;;;3.00;1.50;;;;;16.10;102401.00;;;;5089989;28;20213;-75
2023/02/03 10:46:15;;;;;;;2.75;0.77;;;;;16.10;102407.00;;;;5083287;28;20222;-75
2023/02/03 10:48:44;;;;;;;3.55;0.70;;;;;16.10;102401.00;;;;5082109;28;20226;-75
2023/02/03 10:51:19;;;;;;;2.90;0.82;;;;;16.10;102420.00;;;;5075121;28;20205;-75
2023/02/03 10:53:47;;;;;;;2.20;0.90;;;;;16.20;102418.00;;;;5072332;28;20211;-75
2023/02/03 10:56:17;;;;;;;3.60;0.82;;;;;16.20;102408.00;;;;5079475;28;20213;-75
2023/02/03 10:58:50;;;;;;;4.40;1.17;;;;;16.20;102405.00;;;;5083434;28;20243;-74
2023/02/03 11:01:19;;;;;;;3.55;1.23;;;;;16.20;102400.00;;;;5076428;28;20652;-74
2023/02/03 11:03:58;;;;;;;4.05;0.85;;;;;16.20;102397.00;;;;5082397;28;20199;-74
2023/02/03 11:06:26;;;;;;;3.08;0.90;;;;;16.30;102392.00;;;;5081602;28;20194;-75
2023/02/03 11:08:54;;;;;;;3.25;1.38;;;;;16.30;102409.00;;;;5078800;28;20697;-76
2023/02/03 11:11:24;;;;;;;4.32;0.90;;;;;16.30;102403.00;;;;5085529;28;20202;-76
2023/02/03 11:14:00;;;;;;;5.20;1.48;;;;;16.30;102411.00;;;;5077040;28;20190;-74
2023/02/03 11:16:28;;;;;;;5.10;1.50;;;;;16.30;102410.00;;;;5089102;28;20202;-75
2023/02/03 11:18:59;;;;;;;2.03;0.90;;;;;16.30;102392.00;;;;5079966;28;20194;-75
2023/02/03 11:21:29;;;;;;;2.35;1.08;;;;;16.30;102408.00;;;;5076263;28;20202;-76
2023/02/03 11:24:09;;;;;;;4.88;1.60;;;;;16.30;102425.00;;;;5084371;28;20191;-76
2023/02/03 11:26:40;;;;;;;2.67;0.77;;;;;16.30;102401.00;;;;5078624;28;20199;-76
2023/02/03 11:29:16;;;;;;;2.13;1.20;;;;;16.30;102413.00;;;;5068835;28;20230;-76
2023/02/03 11:31:49;;;;;;;3.17;1.20;;;;;16.40;102415.00;;;;5084007;28;20193;-76
2023/02/03 11:34:22;;;;;;;2.90;1.02;;;;;16.40;102416.00;;;;5083106;28;20670;-75
2023/02/03 11:36:50;;;;;;;3.97;0.90;;;;;16.50;102414.00;;;;5065942;28;21007;-76
2023/02/03 11:39:26;;;;;;;3.83;0.98;;;;;16.50;102393.00;;;;5066971;28;20195;-76
2023/02/03 11:41:54;;;;;;;2.83;1.17;;;;;16.50;102422.00;;;;5067314;28;20197;-76
2023/02/03 11:44:25;;;;;;;4.38;1.40;;;;;16.50;102425.00;;;;5079348;28;20230;-76
2023/02/03 11:46:55;;;;;;;4.45;1.13;;;;;16.50;102412.00;;;;5066544;28;20610;-76
2023/02/03 11:49:57;;;;;;;3.78;1.15;;;;;16.50;102411.00;;;;5069446;28;20219;-77
2023/02/03 11:52:53;;;;;;;1.40;0.98;;;;;16.50;102402.00;;;;5087131;28;20220;-76
2023/02/03 11:55:33;;;;;;;3.10;0.93;;;;;16.50;102428.00;;;;5086493;28;20226;-76
2023/02/03 11:58:31;;;;;;;7.45;2.45;;;;;16.50;102401.00;;;;5089178;28;20197;-76
2023/02/03 12:01:13;;;;;;;3.63;2.05;;;;;16.60;102397.00;;;;5054110;28;20675;-76
2023/02/03 12:03:58;;;;;;;6.80;2.10;;;;;16.60;102394.00;;;;5084134;28;20205;-76
2023/02/03 12:06:49;;;;;;;2.08;1.15;;;;;16.60;102405.00;;;;5071536;28;20221;-77
2023/02/03 12:09:25;;;;;;;5.70;1.10;;;;;16.60;102397.00;;;;5087482;28;20718;-76
2023/02/03 12:12:08;;;;;;;5.55;1.35;;;;;16.60;102402.00;;;;5086052;28;20198;-76
2023/02/03 12:14:49;;;;;;;2.47;0.93;;;;;16.60;102411.00;;;;5088926;28;20221;-76
2023/02/03 12:17:40;;;;;;;2.30;1.08;;;;;16.60;102414.00;;;;5087953;28;20563;-76
2023/02/03 12:20:23;;;;;;;9.68;1.30;;;;;16.60;102411.00;;;;5086510;28;20217;-76
2023/02/03 12:23:02;;;;;;;8.18;1.23;;;;;16.60;102430.00;;;;5087329;28;20206;-75
2023/02/03 12:25:38;;;;;;;4.93;1.58;;;;;16.60;102427.00;;;;5082341;28;20198;-76